sensor_id;sensor_type;location;lat;lon;timestamp;temperature;humidity
19483;DHT22;9882;51.166;6.992;2022-08-19T00:01:29;23.80;99.90
19483;DHT22;9882;51.166;6.992;2022-08-19T00:03:58;23.80;99.90
19483;DHT22;9882;51.166;6.992;2022-08-19T00:06:29;23.80;99.90
19483;DHT22;9882;51.166;6.992;2022-08-19T00:08:58;23.70;99.90
19483;DHT22;9882;51.166;6.992;2022-08-19T00:11:28;23.70;99.90
19483;DHT22;9882;51.166;6.992;2022-08-19T00:13:57;23.70;99.90
19483;DHT22;9882;51.166;6.992;2022-08-19T00:16:27;23.60;99.90
19483;DHT22;9882;51.166;6.992;2022-08-19T00:18:56;23.60;99.90
19483;DHT22;9882;51.166;6.992;2022-08-19T00:21:25;23.60;99.90
19483;DHT22;9882;51.166;6.992;2022-08-19T00:23:55;23.60;99.90
19483;DHT22;9882;51.166;6.992;2022-08-19T00:26:26;23.50;99.90
19483;DHT22;9882;51.166;6.992;2022-08-19T00:28:55;23.50;99.90
19483;DHT22;9882;51.166;6.992;2022-08-19T00:31:23;23.50;99.90
19483;DHT22;9882;51.166;6.992;2022-08-19T00:33:56;23.50;99.90
19483;DHT22;9882;51.166;6.992;2022-08-19T00:36:25;23.50;99.90
19483;DHT22;9882;51.166;6.992;2022-08-19T00:38:53;23.40;99.90
19483;DHT22;9882;51.166;6.992;2022-08-19T00:41:25;23.40;99.90
19483;DHT22;9882;51.166;6.992;2022-08-19T00:43:59;23.40;99.90
19483;DHT22;9882;51.166;6.992;2022-08-19T00:46:28;23.40;99.90
19483;DHT22;9882;51.166;6.992;2022-08-19T00:48:59;23.40;99.90
19483;DHT22;9882;51.166;6.992;2022-08-19T00:51:30;23.30;99.90
19483;DHT22;9882;51.166;6.992;2022-08-19T00:54:00;23.30;99.90
19483;DHT22;9882;51.166;6.992;2022-08-19T00:56:30;23.20;99.90
19483;DHT22;9882;51.166;6.992;2022-08-19T00:58:59;23.20;99.90
19483;DHT22;9882;51.166;6.992;2022-08-19T01:01:29;23.20;99.90
19483;DHT22;9882;51.166;6.992;2022-08-19T01:03:59;23.10;99.90
19483;DHT22;9882;51.166;6.992;2022-08-19T01:06:28;23.10;99.90
19483;DHT22;9882;51.166;6.992;2022-08-19T01:08:59;23.10;99.90
19483;DHT22;9882;51.166;6.992;2022-08-19T01:11:28;23.00;99.90
19483;DHT22;9882;51.166;6.992;2022-08-19T01:13:58;23.00;99.90
19483;DHT22;9882;51.166;6.992;2022-08-19T01:16:28;23.00;99.90
19483;DHT22;9882;51.166;6.992;2022-08-19T01:18:59;23.00;99.90
19483;DHT22;9882;51.166;6.992;2022-08-19T01:21:32;23.00;99.90
19483;DHT22;9882;51.166;6.992;2022-08-19T01:24:04;22.90;99.90
19483;DHT22;9882;51.166;6.992;2022-08-19T01:26:39;22.90;99.90
19483;DHT22;9882;51.166;6.992;2022-08-19T01:29:09;22.90;99.90
19483;DHT22;9882;51.166;6.992;2022-08-19T01:31:38;22.80;99.90
19483;DHT22;9882;51.166;6.992;2022-08-19T01:34:07;22.80;99.90
19483;DHT22;9882;51.166;6.992;2022-08-19T01:36:39;22.80;99.90
19483;DHT22;9882;51.166;6.992;2022-08-19T01:39:13;22.80;99.90
19483;DHT22;9882;51.166;6.992;2022-08-19T01:41:42;22.80;99.90
19483;DHT22;9882;51.166;6.992;2022-08-19T01:44:11;22.70;99.90
19483;DHT22;9882;51.166;6.992;2022-08-19T01:46:41;22.70;99.90
19483;DHT22;9882;51.166;6.992;2022-08-19T01:49:10;22.70;99.90
19483;DHT22;9882;51.166;6.992;2022-08-19T01:51:39;22.60;99.90
19483;DHT22;9882;51.166;6.992;2022-08-19T01:54:10;22.60;99.90
19483;DHT22;9882;51.166;6.992;2022-08-19T01:56:41;22.50;99.90
19483;DHT22;9882;51.166;6.992;2022-08-19T01:59:13;22.50;99.90
19483;DHT22;9882;51.166;6.992;2022-08-19T02:01:42;22.50;99.90
19483;DHT22;9882;51.166;6.992;2022-08-19T02:04:11;22.50;99.90
19483;DHT22;9882;51.166;6.992;2022-08-19T02:06:40;22.50;99.90
19483;DHT22;9882;51.166;6.992;2022-08-19T02:09:10;22.50;99.90
19483;DHT22;9882;51.166;6.992;2022-08-19T02:11:38;22.40;99.90
19483;DHT22;9882;51.166;6.992;2022-08-19T02:14:08;22.40;99.90
19483;DHT22;9882;51.166;6.992;2022-08-19T02:16:37;22.40;99.90
19483;DHT22;9882;51.166;6.992;2022-08-19T02:19:07;22.30;99.90
19483;DHT22;9882;51.166;6.992;2022-08-19T02:21:37;22.30;99.90
19483;DHT22;9882;51.166;6.992;2022-08-19T02:24:06;22.30;99.90
19483;DHT22;9882;51.166;6.992;2022-08-19T02:26:36;22.30;99.90
19483;DHT22;9882;51.166;6.992;2022-08-19T02:29:05;22.30;99.90
19483;DHT22;9882;51.166;6.992;2022-08-19T02:31:33;22.20;99.90
19483;DHT22;9882;51.166;6.992;2022-08-19T02:34:02;22.20;99.90
19483;DHT22;9882;51.166;6.992;2022-08-19T02:36:31;22.20;99.90
19483;DHT22;9882;51.166;6.992;2022-08-19T02:39:00;22.20;99.90
19483;DHT22;9882;51.166;6.992;2022-08-19T02:41:30;22.20;99.90
19483;DHT22;9882;51.166;6.992;2022-08-19T02:44:02;22.10;99.90
19483;DHT22;9882;51.166;6.992;2022-08-19T02:46:32;22.10;99.90
19483;DHT22;9882;51.166;6.992;2022-08-19T02:49:03;22.10;99.90
19483;DHT22;9882;51.166;6.992;2022-08-19T02:51:33;22.10;99.90
19483;DHT22;9882;51.166;6.992;2022-08-19T02:54:03;22.00;99.90
19483;DHT22;9882;51.166;6.992;2022-08-19T02:56:34;22.00;99.90
19483;DHT22;9882;51.166;6.992;2022-08-19T02:59:04;21.90;99.90
19483;DHT22;9882;51.166;6.992;2022-08-19T03:01:39;22.00;99.90
19483;DHT22;9882;51.166;6.992;2022-08-19T03:04:10;21.90;99.90
19483;DHT22;9882;51.166;6.992;2022-08-19T03:06:42;21.90;99.90
19483;DHT22;9882;51.166;6.992;2022-08-19T03:09:11;21.90;99.90
19483;DHT22;9882;51.166;6.992;2022-08-19T03:11:40;21.90;99.90
19483;DHT22;9882;51.166;6.992;2022-08-19T03:14:11;21.80;99.90
19483;DHT22;9882;51.166;6.992;2022-08-19T03:16:44;21.80;99.90
19483;DHT22;9882;51.166;6.992;2022-08-19T03:19:13;21.80;99.90
19483;DHT22;9882;51.166;6.992;2022-08-19T03:21:43;21.80;99.90
19483;DHT22;9882;51.166;6.992;2022-08-19T03:24:13;21.70;99.90
19483;DHT22;9882;51.166;6.992;2022-08-19T03:26:44;21.70;99.90
19483;DHT22;9882;51.166;6.992;2022-08-19T03:29:16;21.70;99.90
19483;DHT22;9882;51.166;6.992;2022-08-19T03:31:45;21.70;99.90
19483;DHT22;9882;51.166;6.992;2022-08-19T03:34:16;21.60;99.90
19483;DHT22;9882;51.166;6.992;2022-08-19T03:36:46;21.60;99.90
19483;DHT22;9882;51.166;6.992;2022-08-19T03:39:16;21.60;99.90
19483;DHT22;9882;51.166;6.992;2022-08-19T03:41:46;21.60;99.90
19483;DHT22;9882;51.166;6.992;2022-08-19T03:44:19;21.50;99.90
19483;DHT22;9882;51.166;6.992;2022-08-19T03:46:53;21.50;99.90
19483;DHT22;9882;51.166;6.992;2022-08-19T03:49:25;21.50;99.90
19483;DHT22;9882;51.166;6.992;2022-08-19T03:51:56;21.50;99.90
19483;DHT22;9882;51.166;6.992;2022-08-19T03:54:27;21.50;99.90
19483;DHT22;9882;51.166;6.992;2022-08-19T03:56:57;21.50;99.90
19483;DHT22;9882;51.166;6.992;2022-08-19T03:59:29;21.40;99.90
19483;DHT22;9882;51.166;6.992;2022-08-19T04:02:00;21.40;99.90
19483;DHT22;9882;51.166;6.992;2022-08-19T04:04:30;21.30;99.90
19483;DHT22;9882;51.166;6.992;2022-08-19T04:06:58;21.30;99.90
19483;DHT22;9882;51.166;6.992;2022-08-19T04:09:27;21.40;99.90
19483;DHT22;9882;51.166;6.992;2022-08-19T04:11:58;21.30;99.90
19483;DHT22;9882;51.166;6.992;2022-08-19T04:14:30;21.30;99.90
19483;DHT22;9882;51.166;6.992;2022-08-19T04:17:00;21.30;99.90
19483;DHT22;9882;51.166;6.992;2022-08-19T04:19:31;21.20;99.90
19483;DHT22;9882;51.166;6.992;2022-08-19T04:22:00;21.30;99.90
19483;DHT22;9882;51.166;6.992;2022-08-19T04:24:29;21.20;99.90
19483;DHT22;9882;51.166;6.992;2022-08-19T04:26:59;21.20;99.90
19483;DHT22;9882;51.166;6.992;2022-08-19T04:29:29;21.10;99.90
19483;DHT22;9882;51.166;6.992;2022-08-19T04:31:59;21.10;99.90
19483;DHT22;9882;51.166;6.992;2022-08-19T04:34:29;21.10;99.90
19483;DHT22;9882;51.166;6.992;2022-08-19T04:36:58;21.10;99.90
19483;DHT22;9882;51.166;6.992;2022-08-19T04:39:29;21.10;99.90
19483;DHT22;9882;51.166;6.992;2022-08-19T04:42:12;21.10;99.90
19483;DHT22;9882;51.166;6.992;2022-08-19T04:45:00;21.10;99.90
19483;DHT22;9882;51.166;6.992;2022-08-19T04:47:30;21.10;99.90
19483;DHT22;9882;51.166;6.992;2022-08-19T04:50:00;21.00;99.90
19483;DHT22;9882;51.166;6.992;2022-08-19T04:52:28;21.00;99.90
19483;DHT22;9882;51.166;6.992;2022-08-19T04:54:59;21.00;99.90
19483;DHT22;9882;51.166;6.992;2022-08-19T04:57:28;21.00;99.90
19483;DHT22;9882;51.166;6.992;2022-08-19T04:59:56;21.00;99.90
19483;DHT22;9882;51.166;6.992;2022-08-19T05:02:27;21.00;99.90
19483;DHT22;9882;51.166;6.992;2022-08-19T05:04:57;21.00;99.90
19483;DHT22;9882;51.166;6.992;2022-08-19T05:07:33;21.00;99.90
19483;DHT22;9882;51.166;6.992;2022-08-19T05:10:05;21.00;99.90
19483;DHT22;9882;51.166;6.992;2022-08-19T05:12:38;21.00;99.90
19483;DHT22;9882;51.166;6.992;2022-08-19T05:15:09;20.90;99.90
19483;DHT22;9882;51.166;6.992;2022-08-19T05:17:45;20.90;99.90
19483;DHT22;9882;51.166;6.992;2022-08-19T05:20:29;20.90;99.90
19483;DHT22;9882;51.166;6.992;2022-08-19T05:23:15;20.90;99.90
19483;DHT22;9882;51.166;6.992;2022-08-19T05:25:55;20.90;99.90
19483;DHT22;9882;51.166;6.992;2022-08-19T05:28:26;20.90;99.90
19483;DHT22;9882;51.166;6.992;2022-08-19T05:31:07;20.70;99.90
19483;DHT22;9882;51.166;6.992;2022-08-19T05:33:40;20.80;99.90
19483;DHT22;9882;51.166;6.992;2022-08-19T05:36:15;20.80;99.90
19483;DHT22;9882;51.166;6.992;2022-08-19T05:38:53;20.80;99.90
19483;DHT22;9882;51.166;6.992;2022-08-19T05:41:52;20.70;99.90
19483;DHT22;9882;51.166;6.992;2022-08-19T05:44:36;20.60;99.90
19483;DHT22;9882;51.166;6.992;2022-08-19T05:47:06;20.60;99.90
19483;DHT22;9882;51.166;6.992;2022-08-19T05:49:38;20.70;99.90
19483;DHT22;9882;51.166;6.992;2022-08-19T05:52:09;20.60;99.90
19483;DHT22;9882;51.166;6.992;2022-08-19T05:54:42;20.70;99.90
19483;DHT22;9882;51.166;6.992;2022-08-19T05:57:12;20.70;99.90
19483;DHT22;9882;51.166;6.992;2022-08-19T05:59:40;20.70;99.90
19483;DHT22;9882;51.166;6.992;2022-08-19T06:02:09;20.70;99.90
19483;DHT22;9882;51.166;6.992;2022-08-19T06:04:39;20.80;99.90
19483;DHT22;9882;51.166;6.992;2022-08-19T06:07:10;20.70;99.90
19483;DHT22;9882;51.166;6.992;2022-08-19T06:09:39;20.80;99.90
19483;DHT22;9882;51.166;6.992;2022-08-19T06:12:07;20.80;99.90
19483;DHT22;9882;51.166;6.992;2022-08-19T06:14:36;20.80;99.90
19483;DHT22;9882;51.166;6.992;2022-08-19T06:17:05;20.90;99.90
19483;DHT22;9882;51.166;6.992;2022-08-19T06:19:33;20.80;99.90
19483;DHT22;9882;51.166;6.992;2022-08-19T06:22:03;20.80;99.90
19483;DHT22;9882;51.166;6.992;2022-08-19T06:24:33;20.80;99.90
19483;DHT22;9882;51.166;6.992;2022-08-19T06:27:03;20.70;99.90
19483;DHT22;9882;51.166;6.992;2022-08-19T06:29:32;20.80;99.90
19483;DHT22;9882;51.166;6.992;2022-08-19T06:32:03;20.10;99.90
19483;DHT22;9882;51.166;6.992;2022-08-19T06:34:34;20.20;99.90
19483;DHT22;9882;51.166;6.992;2022-08-19T06:37:04;19.90;99.90
19483;DHT22;9882;51.166;6.992;2022-08-19T06:39:35;19.90;99.90
19483;DHT22;9882;51.166;6.992;2022-08-19T06:42:06;20.30;99.90
19483;DHT22;9882;51.166;6.992;2022-08-19T06:44:38;20.40;99.90
19483;DHT22;9882;51.166;6.992;2022-08-19T06:47:08;20.00;99.90
19483;DHT22;9882;51.166;6.992;2022-08-19T06:49:37;19.90;99.90
19483;DHT22;9882;51.166;6.992;2022-08-19T06:52:09;20.20;99.90
19483;DHT22;9882;51.166;6.992;2022-08-19T06:54:39;20.40;99.90
19483;DHT22;9882;51.166;6.992;2022-08-19T06:57:09;19.70;99.90
19483;DHT22;9882;51.166;6.992;2022-08-19T06:59:42;19.30;99.90
19483;DHT22;9882;51.166;6.992;2022-08-19T07:02:11;19.40;99.90
19483;DHT22;9882;51.166;6.992;2022-08-19T07:04:39;19.20;99.90
19483;DHT22;9882;51.166;6.992;2022-08-19T07:07:11;19.20;99.90
19483;DHT22;9882;51.166;6.992;2022-08-19T07:09:43;19.40;99.90
19483;DHT22;9882;51.166;6.992;2022-08-19T07:12:13;19.60;99.90
19483;DHT22;9882;51.166;6.992;2022-08-19T07:14:43;19.50;99.90
19483;DHT22;9882;51.166;6.992;2022-08-19T07:17:12;19.40;99.90
19483;DHT22;9882;51.166;6.992;2022-08-19T07:19:41;19.50;99.90
19483;DHT22;9882;51.166;6.992;2022-08-19T07:22:13;19.30;99.90
19483;DHT22;9882;51.166;6.992;2022-08-19T07:24:42;19.40;99.90
19483;DHT22;9882;51.166;6.992;2022-08-19T07:27:10;19.40;99.90
19483;DHT22;9882;51.166;6.992;2022-08-19T07:29:41;19.30;99.90
19483;DHT22;9882;51.166;6.992;2022-08-19T07:32:10;19.40;99.90
19483;DHT22;9882;51.166;6.992;2022-08-19T07:34:38;19.70;99.90
19483;DHT22;9882;51.166;6.992;2022-08-19T07:37:07;19.50;99.90
19483;DHT22;9882;51.166;6.992;2022-08-19T07:39:38;19.50;99.90
19483;DHT22;9882;51.166;6.992;2022-08-19T07:42:09;19.60;99.90
19483;DHT22;9882;51.166;6.992;2022-08-19T07:44:39;19.60;99.90
19483;DHT22;9882;51.166;6.992;2022-08-19T07:47:08;19.40;99.90
19483;DHT22;9882;51.166;6.992;2022-08-19T07:49:36;19.40;99.90
19483;DHT22;9882;51.166;6.992;2022-08-19T07:52:08;19.40;99.90
19483;DHT22;9882;51.166;6.992;2022-08-19T07:54:39;19.40;99.90
19483;DHT22;9882;51.166;6.992;2022-08-19T07:57:08;19.40;99.90
19483;DHT22;9882;51.166;6.992;2022-08-19T07:59:37;19.40;99.90
19483;DHT22;9882;51.166;6.992;2022-08-19T08:02:06;19.10;99.90
19483;DHT22;9882;51.166;6.992;2022-08-19T08:04:35;19.50;99.90
19483;DHT22;9882;51.166;6.992;2022-08-19T08:07:21;19.50;99.90
19483;DHT22;9882;51.166;6.992;2022-08-19T08:10:14;19.60;99.90
19483;DHT22;9882;51.166;6.992;2022-08-19T08:12:42;19.40;99.90
19483;DHT22;9882;51.166;6.992;2022-08-19T08:15:14;19.50;99.90
19483;DHT22;9882;51.166;6.992;2022-08-19T08:17:48;19.60;99.90
19483;DHT22;9882;51.166;6.992;2022-08-19T08:20:24;19.80;99.90
19483;DHT22;9882;51.166;6.992;2022-08-19T08:23:18;19.60;99.90
19483;DHT22;9882;51.166;6.992;2022-08-19T08:26:03;19.90;99.90
19483;DHT22;9882;51.166;6.992;2022-08-19T08:28:44;20.00;99.90
19483;DHT22;9882;51.166;6.992;2022-08-19T08:31:26;20.00;99.90
19483;DHT22;9882;51.166;6.992;2022-08-19T08:34:26;20.20;99.90
19483;DHT22;9882;51.166;6.992;2022-08-19T08:36:59;20.20;99.90
19483;DHT22;9882;51.166;6.992;2022-08-19T08:39:32;20.40;99.90
19483;DHT22;9882;51.166;6.992;2022-08-19T08:42:08;20.40;99.90
19483;DHT22;9882;51.166;6.992;2022-08-19T08:44:46;20.30;99.90
19483;DHT22;9882;51.166;6.992;2022-08-19T08:47:23;20.30;99.90
19483;DHT22;9882;51.166;6.992;2022-08-19T08:49:59;20.30;99.90
19483;DHT22;9882;51.166;6.992;2022-08-19T08:52:32;20.50;99.90
19483;DHT22;9882;51.166;6.992;2022-08-19T08:55:06;20.70;99.90
19483;DHT22;9882;51.166;6.992;2022-08-19T08:57:52;20.90;99.90
19483;DHT22;9882;51.166;6.992;2022-08-19T09:00:26;21.00;99.90
19483;DHT22;9882;51.166;6.992;2022-08-19T09:03:03;21.10;99.90
19483;DHT22;9882;51.166;6.992;2022-08-19T09:05:56;21.20;99.90
19483;DHT22;9882;51.166;6.992;2022-08-19T09:08:52;21.60;99.90
19483;DHT22;9882;51.166;6.992;2022-08-19T09:11:50;21.50;99.90
19483;DHT22;9882;51.166;6.992;2022-08-19T09:14:42;21.60;99.90
19483;DHT22;9882;51.166;6.992;2022-08-19T09:17:24;21.70;99.90
19483;DHT22;9882;51.166;6.992;2022-08-19T09:20:22;21.80;99.90
19483;DHT22;9882;51.166;6.992;2022-08-19T09:23:03;21.80;99.90
19483;DHT22;9882;51.166;6.992;2022-08-19T09:25:40;21.80;99.90
19483;DHT22;9882;51.166;6.992;2022-08-19T09:28:22;21.80;99.90
19483;DHT22;9882;51.166;6.992;2022-08-19T09:31:05;22.00;99.90
19483;DHT22;9882;51.166;6.992;2022-08-19T09:33:43;22.10;99.90
19483;DHT22;9882;51.166;6.992;2022-08-19T09:36:31;22.20;99.90
19483;DHT22;9882;51.166;6.992;2022-08-19T09:39:08;22.20;99.90
19483;DHT22;9882;51.166;6.992;2022-08-19T09:41:40;22.40;99.90
19483;DHT22;9882;51.166;6.992;2022-08-19T09:44:22;22.30;99.90
19483;DHT22;9882;51.166;6.992;2022-08-19T09:46:52;22.40;99.90
19483;DHT22;9882;51.166;6.992;2022-08-19T09:49:22;22.30;99.90
19483;DHT22;9882;51.166;6.992;2022-08-19T09:51:52;22.40;99.90
19483;DHT22;9882;51.166;6.992;2022-08-19T09:54:26;22.40;99.90
19483;DHT22;9882;51.166;6.992;2022-08-19T09:56:58;22.30;99.90
19483;DHT22;9882;51.166;6.992;2022-08-19T09:59:28;22.20;99.90
19483;DHT22;9882;51.166;6.992;2022-08-19T10:02:04;22.30;99.90
19483;DHT22;9882;51.166;6.992;2022-08-19T10:04:33;22.50;99.90
19483;DHT22;9882;51.166;6.992;2022-08-19T10:07:19;22.50;99.90
19483;DHT22;9882;51.166;6.992;2022-08-19T10:09:49;22.50;99.90
19483;DHT22;9882;51.166;6.992;2022-08-19T10:12:20;22.40;99.90
19483;DHT22;9882;51.166;6.992;2022-08-19T10:14:49;22.70;99.90
19483;DHT22;9882;51.166;6.992;2022-08-19T10:17:20;22.70;99.90
19483;DHT22;9882;51.166;6.992;2022-08-19T10:19:51;22.50;99.90
19483;DHT22;9882;51.166;6.992;2022-08-19T10:22:26;22.60;99.90
19483;DHT22;9882;51.166;6.992;2022-08-19T10:24:54;22.70;99.90
19483;DHT22;9882;51.166;6.992;2022-08-19T10:27:24;22.80;99.90
19483;DHT22;9882;51.166;6.992;2022-08-19T10:29:53;23.00;99.90
19483;DHT22;9882;51.166;6.992;2022-08-19T10:32:23;23.10;99.90
19483;DHT22;9882;51.166;6.992;2022-08-19T10:34:52;23.30;99.90
19483;DHT22;9882;51.166;6.992;2022-08-19T10:37:23;23.40;99.90
19483;DHT22;9882;51.166;6.992;2022-08-19T10:39:52;23.50;99.90
19483;DHT22;9882;51.166;6.992;2022-08-19T10:42:23;23.50;99.90
19483;DHT22;9882;51.166;6.992;2022-08-19T10:44:56;23.50;99.90
19483;DHT22;9882;51.166;6.992;2022-08-19T10:47:34;23.40;99.90
19483;DHT22;9882;51.166;6.992;2022-08-19T10:50:51;23.50;99.90
19483;DHT22;9882;51.166;6.992;2022-08-19T10:53:46;23.60;99.90
19483;DHT22;9882;51.166;6.992;2022-08-19T10:56:22;23.50;99.90
19483;DHT22;9882;51.166;6.992;2022-08-19T10:59:15;23.40;99.90
19483;DHT22;9882;51.166;6.992;2022-08-19T11:01:53;23.30;99.90
19483;DHT22;9882;51.166;6.992;2022-08-19T11:04:50;23.60;99.90
19483;DHT22;9882;51.166;6.992;2022-08-19T11:07:40;23.80;99.90
19483;DHT22;9882;51.166;6.992;2022-08-19T11:10:23;23.90;99.90
19483;DHT22;9882;51.166;6.992;2022-08-19T11:13:11;23.80;99.90
19483;DHT22;9882;51.166;6.992;2022-08-19T11:15:56;24.20;99.90
19483;DHT22;9882;51.166;6.992;2022-08-19T11:18:29;24.10;99.90
19483;DHT22;9882;51.166;6.992;2022-08-19T11:21:13;24.30;99.90
19483;DHT22;9882;51.166;6.992;2022-08-19T11:23:45;24.80;99.90
19483;DHT22;9882;51.166;6.992;2022-08-19T11:26:16;24.70;99.90
19483;DHT22;9882;51.166;6.992;2022-08-19T11:28:46;24.50;99.90
19483;DHT22;9882;51.166;6.992;2022-08-19T11:31:19;24.60;99.90
19483;DHT22;9882;51.166;6.992;2022-08-19T11:33:48;24.80;99.90
19483;DHT22;9882;51.166;6.992;2022-08-19T11:36:20;24.70;99.90
19483;DHT22;9882;51.166;6.992;2022-08-19T11:38:52;24.60;99.90
19483;DHT22;9882;51.166;6.992;2022-08-19T11:41:23;24.90;99.90
19483;DHT22;9882;51.166;6.992;2022-08-19T11:43:53;24.60;99.90
19483;DHT22;9882;51.166;6.992;2022-08-19T11:46:24;24.50;99.90
19483;DHT22;9882;51.166;6.992;2022-08-19T11:48:52;24.70;99.90
19483;DHT22;9882;51.166;6.992;2022-08-19T11:51:24;24.70;99.90
19483;DHT22;9882;51.166;6.992;2022-08-19T11:53:54;24.50;99.90
19483;DHT22;9882;51.166;6.992;2022-08-19T11:56:23;24.50;99.90
19483;DHT22;9882;51.166;6.992;2022-08-19T11:59:17;24.80;99.90
19483;DHT22;9882;51.166;6.992;2022-08-19T12:01:46;24.80;99.90
19483;DHT22;9882;51.166;6.992;2022-08-19T12:04:16;24.80;99.90
19483;DHT22;9882;51.166;6.992;2022-08-19T12:07:02;24.90;99.90
19483;DHT22;9882;51.166;6.992;2022-08-19T12:09:32;25.20;99.90
19483;DHT22;9882;51.166;6.992;2022-08-19T12:12:12;25.10;99.90
19483;DHT22;9882;51.166;6.992;2022-08-19T12:15:02;25.10;99.90
19483;DHT22;9882;51.166;6.992;2022-08-19T12:17:49;25.30;99.90
19483;DHT22;9882;51.166;6.992;2022-08-19T12:20:45;25.50;99.90
19483;DHT22;9882;51.166;6.992;2022-08-19T12:23:54;25.40;99.90
19483;DHT22;9882;51.166;6.992;2022-08-19T12:26:54;25.50;99.90
19483;DHT22;9882;51.166;6.992;2022-08-19T12:32:29;25.40;99.90
19483;DHT22;9882;51.166;6.992;2022-08-19T12:35:08;25.30;99.90
19483;DHT22;9882;51.166;6.992;2022-08-19T12:37:42;25.50;99.90
19483;DHT22;9882;51.166;6.992;2022-08-19T12:40:23;25.40;99.90
19483;DHT22;9882;51.166;6.992;2022-08-19T12:42:58;25.40;99.90
19483;DHT22;9882;51.166;6.992;2022-08-19T12:45:29;25.30;99.90
19483;DHT22;9882;51.166;6.992;2022-08-19T12:48:03;25.30;99.90
19483;DHT22;9882;51.166;6.992;2022-08-19T12:50:33;25.30;99.90
19483;DHT22;9882;51.166;6.992;2022-08-19T12:53:10;25.10;99.90
19483;DHT22;9882;51.166;6.992;2022-08-19T12:55:41;25.40;99.90
19483;DHT22;9882;51.166;6.992;2022-08-19T12:58:11;25.20;99.90
19483;DHT22;9882;51.166;6.992;2022-08-19T13:00:40;24.90;99.90
19483;DHT22;9882;51.166;6.992;2022-08-19T13:03:09;25.20;99.90
19483;DHT22;9882;51.166;6.992;2022-08-19T13:05:38;25.20;99.90
19483;DHT22;9882;51.166;6.992;2022-08-19T13:08:06;25.20;99.90
19483;DHT22;9882;51.166;6.992;2022-08-19T13:10:39;25.50;99.90
19483;DHT22;9882;51.166;6.992;2022-08-19T13:13:09;25.50;99.90
19483;DHT22;9882;51.166;6.992;2022-08-19T13:15:40;25.40;99.90
19483;DHT22;9882;51.166;6.992;2022-08-19T13:18:09;25.30;99.90
19483;DHT22;9882;51.166;6.992;2022-08-19T13:20:40;25.50;99.90
19483;DHT22;9882;51.166;6.992;2022-08-19T13:23:09;25.70;99.90
19483;DHT22;9882;51.166;6.992;2022-08-19T13:25:42;25.70;99.90
19483;DHT22;9882;51.166;6.992;2022-08-19T13:28:13;25.40;99.90
19483;DHT22;9882;51.166;6.992;2022-08-19T13:30:47;25.60;99.90
19483;DHT22;9882;51.166;6.992;2022-08-19T13:33:35;25.80;99.90
19483;DHT22;9882;51.166;6.992;2022-08-19T13:36:04;26.30;99.90
19483;DHT22;9882;51.166;6.992;2022-08-19T13:38:35;26.50;99.90
19483;DHT22;9882;51.166;6.992;2022-08-19T13:41:06;26.70;99.90
19483;DHT22;9882;51.166;6.992;2022-08-19T13:43:41;27.20;99.90
19483;DHT22;9882;51.166;6.992;2022-08-19T13:46:15;27.60;99.90
19483;DHT22;9882;51.166;6.992;2022-08-19T13:48:50;27.80;99.90
19483;DHT22;9882;51.166;6.992;2022-08-19T13:51:24;28.00;99.90
19483;DHT22;9882;51.166;6.992;2022-08-19T13:53:53;28.90;99.90
19483;DHT22;9882;51.166;6.992;2022-08-19T13:56:24;28.60;99.30
19483;DHT22;9882;51.166;6.992;2022-08-19T13:58:53;28.40;99.90
19483;DHT22;9882;51.166;6.992;2022-08-19T14:01:25;28.70;99.80
19483;DHT22;9882;51.166;6.992;2022-08-19T14:03:53;28.60;97.00
19483;DHT22;9882;51.166;6.992;2022-08-19T14:06:24;28.40;98.00
19483;DHT22;9882;51.166;6.992;2022-08-19T14:08:57;28.40;99.90
19483;DHT22;9882;51.166;6.992;2022-08-19T14:11:27;27.80;98.70
19483;DHT22;9882;51.166;6.992;2022-08-19T14:13:56;27.80;99.60
19483;DHT22;9882;51.166;6.992;2022-08-19T14:16:24;28.70;98.30
19483;DHT22;9882;51.166;6.992;2022-08-19T14:18:54;28.50;98.10
19483;DHT22;9882;51.166;6.992;2022-08-19T14:21:32;27.60;97.50
19483;DHT22;9882;51.166;6.992;2022-08-19T14:24:04;28.50;97.50
19483;DHT22;9882;51.166;6.992;2022-08-19T14:26:35;27.90;97.20
19483;DHT22;9882;51.166;6.992;2022-08-19T14:29:04;28.60;98.40
19483;DHT22;9882;51.166;6.992;2022-08-19T14:31:35;28.90;94.00
19483;DHT22;9882;51.166;6.992;2022-08-19T14:34:09;29.20;96.10
19483;DHT22;9882;51.166;6.992;2022-08-19T14:36:41;30.00;91.90
19483;DHT22;9882;51.166;6.992;2022-08-19T14:39:10;29.60;91.70
19483;DHT22;9882;51.166;6.992;2022-08-19T14:41:42;29.80;91.60
19483;DHT22;9882;51.166;6.992;2022-08-19T14:44:12;29.60;92.90
19483;DHT22;9882;51.166;6.992;2022-08-19T14:46:41;28.50;92.20
19483;DHT22;9882;51.166;6.992;2022-08-19T14:49:11;29.30;93.50
19483;DHT22;9882;51.166;6.992;2022-08-19T14:51:40;29.80;91.90
19483;DHT22;9882;51.166;6.992;2022-08-19T14:54:09;28.10;94.10
19483;DHT22;9882;51.166;6.992;2022-08-19T14:56:40;27.50;95.00
19483;DHT22;9882;51.166;6.992;2022-08-19T14:59:10;28.20;96.40
19483;DHT22;9882;51.166;6.992;2022-08-19T15:01:39;29.10;92.90
19483;DHT22;9882;51.166;6.992;2022-08-19T15:04:10;29.30;94.10
19483;DHT22;9882;51.166;6.992;2022-08-19T15:06:41;29.70;91.30
19483;DHT22;9882;51.166;6.992;2022-08-19T15:09:13;28.20;91.40
19483;DHT22;9882;51.166;6.992;2022-08-19T15:11:44;28.10;93.10
19483;DHT22;9882;51.166;6.992;2022-08-19T15:14:20;28.90;94.00
19483;DHT22;9882;51.166;6.992;2022-08-19T15:16:53;29.30;91.50
19483;DHT22;9882;51.166;6.992;2022-08-19T15:19:29;30.40;91.80
19483;DHT22;9882;51.166;6.992;2022-08-19T15:22:32;29.90;86.20
19483;DHT22;9882;51.166;6.992;2022-08-19T15:25:16;29.60;85.00
19483;DHT22;9882;51.166;6.992;2022-08-19T15:28:03;28.40;93.60
19483;DHT22;9882;51.166;6.992;2022-08-19T15:30:45;27.70;92.50
19483;DHT22;9882;51.166;6.992;2022-08-19T15:33:41;27.70;91.70
19483;DHT22;9882;51.166;6.992;2022-08-19T15:40:26;29.40;90.80
19483;DHT22;9882;51.166;6.992;2022-08-19T15:44:06;29.60;92.10
19483;DHT22;9882;51.166;6.992;2022-08-19T15:47:17;28.80;94.90
19483;DHT22;9882;51.166;6.992;2022-08-19T15:54:34;28.30;92.40
19483;DHT22;9882;51.166;6.992;2022-08-19T15:57:51;28.40;96.80
19483;DHT22;9882;51.166;6.992;2022-08-19T16:00:47;29.20;94.90
19483;DHT22;9882;51.166;6.992;2022-08-19T16:04:10;29.50;92.50
19483;DHT22;9882;51.166;6.992;2022-08-19T16:07:01;29.90;93.00
19483;DHT22;9882;51.166;6.992;2022-08-19T16:09:34;29.70;90.60
19483;DHT22;9882;51.166;6.992;2022-08-19T16:12:05;29.90;92.90
19483;DHT22;9882;51.166;6.992;2022-08-19T16:14:37;29.40;90.70
19483;DHT22;9882;51.166;6.992;2022-08-19T16:17:10;28.50;93.10
19483;DHT22;9882;51.166;6.992;2022-08-19T16:19:43;29.20;92.90
19483;DHT22;9882;51.166;6.992;2022-08-19T16:22:13;29.70;92.80
19483;DHT22;9882;51.166;6.992;2022-08-19T16:24:42;28.70;92.40
19483;DHT22;9882;51.166;6.992;2022-08-19T16:27:14;27.90;93.60
19483;DHT22;9882;51.166;6.992;2022-08-19T16:29:43;27.90;95.00
19483;DHT22;9882;51.166;6.992;2022-08-19T16:32:11;27.80;95.30
19483;DHT22;9882;51.166;6.992;2022-08-19T16:34:41;27.40;98.00
19483;DHT22;9882;51.166;6.992;2022-08-19T16:37:12;27.00;96.60
19483;DHT22;9882;51.166;6.992;2022-08-19T16:39:48;27.70;97.80